createdAt,value
2018-05-04T00:00:16.679Z,94570.87
2018-05-04T00:02:43.007Z,94577.88
2018-05-04T00:05:09.360Z,94565.19
2018-05-04T00:07:35.692Z,94570.27
2018-05-04T00:10:02.142Z,94573.39
2018-05-04T00:12:28.476Z,94577.94
2018-05-04T00:14:54.793Z,94566.76
2018-05-04T00:17:21.116Z,94573.41
2018-05-04T00:19:47.472Z,94574.02
2018-05-04T00:22:13.800Z,94562.25
2018-05-04T00:24:40.122Z,94577.47
2018-05-04T00:27:06.476Z,94585.20
2018-05-04T00:29:32.862Z,94578.38
2018-05-04T00:31:59.357Z,94575.24
2018-05-04T00:34:25.741Z,94571.69
2018-05-04T00:36:52.122Z,94582.03
2018-05-04T00:39:18.864Z,94587.52
2018-05-04T00:41:45.219Z,94587.59
2018-05-04T00:44:11.606Z,94584.19
2018-05-04T00:46:37.920Z,94592.96
2018-05-04T00:49:04.242Z,94591.31
2018-05-04T00:51:30.561Z,94596.28
2018-05-04T00:53:56.904Z,94578.02
2018-05-04T00:56:23.232Z,94608.11
2018-05-04T00:58:49.583Z,94595.66
2018-05-04T01:01:16.073Z,94597.92
2018-05-04T01:03:42.398Z,94598.86
2018-05-04T01:06:08.726Z,94594.91
2018-05-04T01:08:35.063Z,94596.01
2018-05-04T01:11:01.385Z,94603.94
2018-05-04T01:13:27.743Z,94606.20
2018-05-04T01:15:54.059Z,94601.39
2018-05-04T01:18:20.424Z,94592.84
2018-05-04T01:20:46.781Z,94601.45
2018-05-04T01:23:13.109Z,94607.88
2018-05-04T01:25:39.438Z,94602.03
2018-05-04T01:28:05.777Z,94608.83
2018-05-04T01:30:32.105Z,94607.23
2018-05-04T01:32:58.437Z,94610.23
2018-05-04T01:35:24.765Z,94601.12
2018-05-04T01:37:51.101Z,94610.30
2018-05-04T01:40:17.469Z,94621.87
2018-05-04T01:42:43.791Z,94627.08
2018-05-04T01:45:10.109Z,94611.56
2018-05-04T01:47:36.441Z,94616.07
2018-05-04T01:50:02.806Z,94613.02
2018-05-04T01:52:29.149Z,94612.20
2018-05-04T01:54:55.485Z,94589.09
2018-05-04T01:57:21.893Z,94602.68
2018-05-04T01:59:48.398Z,94601.89
2018-05-04T02:02:14.736Z,94598.08
2018-05-04T02:04:41.107Z,94606.69
2018-05-04T02:07:07.940Z,94597.12
2018-05-04T02:09:34.329Z,94603.67
2018-05-04T02:12:00.723Z,94601.30
2018-05-04T02:14:27.229Z,94602.94
2018-05-04T02:16:53.747Z,94598.78
2018-05-04T02:19:20.212Z,94604.55
2018-05-04T02:21:46.753Z,94600.89
2018-05-04T02:24:13.134Z,94609.44
2018-05-04T02:26:39.553Z,94608.03
2018-05-04T02:29:05.943Z,94612.98
2018-05-04T02:31:32.450Z,94610.87
2018-05-04T02:33:59.023Z,94616.70
2018-05-04T02:36:25.373Z,94622.00
2018-05-04T02:38:51.719Z,94615.77
2018-05-04T02:41:18.390Z,94621.53
2018-05-04T02:43:44.764Z,94627.20
2018-05-04T02:46:11.192Z,94626.17
2018-05-04T02:48:37.653Z,94621.64
2018-05-04T02:51:04.068Z,94621.67
2018-05-04T02:53:30.433Z,94624.42
2018-05-04T02:55:56.832Z,94620.36
2018-05-04T02:58:23.250Z,94619.13
2018-05-04T03:00:49.629Z,94626.70
2018-05-04T03:03:16.247Z,94619.84
2018-05-04T03:05:42.644Z,94640.20
2018-05-04T03:08:09.076Z,94621.95
2018-05-04T03:10:35.463Z,94621.74
2018-05-04T03:13:01.835Z,94634.93
2018-05-04T03:15:28.200Z,94633.02
2018-05-04T03:17:54.512Z,94632.61
2018-05-04T03:20:20.883Z,94627.46
2018-05-04T03:22:47.290Z,94628.79
2018-05-04T03:25:13.663Z,94631.69
2018-05-04T03:27:39.992Z,94631.20
2018-05-04T03:30:06.369Z,94631.09
2018-05-04T03:32:32.788Z,94624.70
2018-05-04T03:34:59.172Z,94627.72
2018-05-04T03:37:25.587Z,94632.77
2018-05-04T03:39:52.192Z,94646.73
2018-05-04T03:42:18.939Z,94615.09
2018-05-04T03:44:45.348Z,94642.20
2018-05-04T03:47:11.692Z,94645.39
2018-05-04T03:49:38.060Z,94647.27
2018-05-04T03:52:04.628Z,94642.55
2018-05-04T03:54:30.994Z,94652.95
2018-05-04T03:56:57.332Z,94652.25
2018-05-04T03:59:24.079Z,94643.78
2018-05-04T04:01:50.436Z,94656.41
2018-05-04T04:04:16.804Z,94657.73
2018-05-04T04:06:43.212Z,94657.34
2018-05-04T04:09:09.575Z,94662.44
2018-05-04T04:11:35.948Z,94645.02
2018-05-04T04:14:02.457Z,94665.37
2018-05-04T04:16:29.880Z,94654.86
2018-05-04T04:18:56.311Z,94664.70
2018-05-04T04:21:22.660Z,94666.20
2018-05-04T04:23:49.444Z,94668.72
2018-05-04T04:26:15.994Z,94672.23
2018-05-04T04:28:43.006Z,94668.16
2018-05-04T04:31:09.609Z,94684.19
2018-05-04T04:33:35.991Z,94680.50
2018-05-04T04:36:02.579Z,94686.97
2018-05-04T04:38:29.260Z,94684.69
2018-05-04T04:40:56.298Z,94677.74
2018-05-04T04:43:23.022Z,94664.31
2018-05-04T04:45:50.324Z,94692.53
2018-05-04T04:48:16.796Z,94689.61
2018-05-04T04:50:44.306Z,94685.51
2018-05-04T04:53:10.797Z,94693.88
2018-05-04T04:55:37.576Z,94707.05
2018-05-04T04:58:04.005Z,94706.81
2018-05-04T05:00:30.407Z,94697.49
2018-05-04T05:02:56.893Z,94700.92
2018-05-04T05:05:23.376Z,94693.69
2018-05-04T05:07:50.570Z,94697.32
2018-05-04T05:10:17.117Z,94696.12
2018-05-04T05:12:43.621Z,94702.36
2018-05-04T05:15:10.341Z,94707.14
2018-05-04T05:17:36.778Z,94709.40
2018-05-04T05:20:03.726Z,94697.76
2018-05-04T05:22:31.729Z,94713.47
2018-05-04T05:24:58.331Z,94710.95
2018-05-04T05:27:25.263Z,94704.18
2018-05-04T05:29:53.693Z,94703.15
2018-05-04T05:32:20.176Z,94690.38
2018-05-04T05:34:46.975Z,94710.27
2018-05-04T05:39:46.913Z,94713.88
2018-05-04T05:42:13.445Z,94709.16
2018-05-04T05:44:42.547Z,94710.48
2018-05-04T05:47:09.843Z,94704.38
2018-05-04T05:49:36.490Z,94718.66
2018-05-04T05:52:03.389Z,94705.46
2018-05-04T05:54:32.585Z,94712.95
2018-05-04T05:56:59.276Z,94708.73
2018-05-04T05:59:25.899Z,94699.22
2018-05-04T06:01:52.569Z,94713.24
2018-05-04T06:04:19.188Z,94712.09
2018-05-04T06:06:46.051Z,94699.59
2018-05-04T06:09:12.938Z,94702.18
2018-05-04T06:11:39.517Z,94692.12
2018-05-04T06:14:06.276Z,94722.50
2018-05-04T06:16:33.448Z,94707.13
2018-05-04T06:19:00.092Z,94686.41
2018-05-04T06:21:34.319Z,94710.34
2018-05-04T06:24:06.306Z,94711.02
2018-05-04T06:31:57.651Z,94703.88
2018-05-04T06:34:24.023Z,94696.02
2018-05-04T06:36:50.401Z,94689.36
2018-05-04T06:39:16.850Z,94699.88
2018-05-04T06:41:43.266Z,94684.12
2018-05-04T06:44:09.786Z,94700.71
2018-05-04T06:46:36.182Z,94677.88
2018-05-04T06:49:02.754Z,94687.86
2018-05-04T06:51:29.397Z,94690.72
2018-05-04T06:53:55.814Z,94688.94
2018-05-04T06:56:22.240Z,94693.78
2018-05-04T06:58:48.895Z,94697.45
2018-05-04T07:01:15.454Z,94681.34
2018-05-04T07:03:41.892Z,94685.12
2018-05-04T07:06:08.300Z,94674.00
2018-05-04T07:08:34.767Z,94692.34
2018-05-04T07:11:01.123Z,94676.23
2018-05-04T07:13:27.523Z,94683.59
2018-05-04T07:15:54.007Z,94690.92
2018-05-04T07:18:20.368Z,94683.58
2018-05-04T07:20:46.793Z,94688.94
2018-05-04T07:23:13.500Z,94663.20
2018-05-04T07:25:40.008Z,94692.10
2018-05-04T07:28:06.474Z,94692.38
2018-05-04T07:30:33.302Z,94692.98
2018-05-04T07:33:00.210Z,94688.00
2018-05-04T07:35:27.089Z,94682.30
2018-05-04T07:37:53.566Z,94696.43
2018-05-04T07:40:20.297Z,94704.81
2018-05-04T07:42:46.959Z,94695.42
2018-05-04T07:45:13.499Z,94690.92
2018-05-04T07:47:39.895Z,94694.09
2018-05-04T07:50:06.338Z,94693.41
2018-05-04T07:52:34.081Z,94688.63
2018-05-04T07:55:00.540Z,94693.02
2018-05-04T07:57:27.949Z,94703.77
2018-05-04T07:59:54.583Z,94697.27
2018-05-04T08:02:21.077Z,94686.72
2018-05-04T08:04:47.534Z,94670.66
2018-05-04T08:07:13.986Z,94690.45
2018-05-04T08:09:40.568Z,94690.81
2018-05-04T08:12:07.420Z,94698.73
2018-05-04T08:14:33.881Z,94698.40
2018-05-04T08:17:00.298Z,94688.69
2018-05-04T08:19:27.279Z,94679.47
2018-05-04T08:21:54.992Z,94692.83
2018-05-04T08:24:22.183Z,94705.83
2018-05-04T08:26:48.705Z,94683.13
2018-05-04T08:29:15.045Z,94696.16
2018-05-04T08:31:41.406Z,94702.81
2018-05-04T08:34:08.282Z,94692.09
2018-05-04T08:36:34.882Z,94693.77
2018-05-04T08:39:01.336Z,94696.01
2018-05-04T08:41:28.205Z,94691.97
2018-05-04T08:43:54.707Z,94702.83
2018-05-04T08:46:21.118Z,94704.44
2018-05-04T08:48:47.807Z,94699.84
2018-05-04T08:51:14.519Z,94708.23
2018-05-04T08:53:40.922Z,94704.09
2018-05-04T08:56:07.281Z,94702.13
2018-05-04T08:58:33.697Z,94697.16
2018-05-04T09:01:00.160Z,94688.14
2018-05-04T09:03:26.532Z,94696.75
2018-05-04T09:05:53.139Z,94679.09
2018-05-04T09:08:19.768Z,94681.55
2018-05-04T09:10:51.311Z,94682.69
2018-05-04T09:13:18.394Z,94690.17
2018-05-04T09:15:44.905Z,94682.88
2018-05-04T09:18:11.444Z,94686.63
2018-05-04T09:20:37.881Z,94680.52
2018-05-04T09:23:04.557Z,94676.29
2018-05-04T09:25:31.105Z,94684.58
2018-05-04T09:27:57.456Z,94690.30
2018-05-04T09:30:23.826Z,94690.51
2018-05-04T09:32:50.233Z,94679.91
2018-05-04T09:35:16.707Z,94671.52
2018-05-04T09:37:43.089Z,94670.66
2018-05-04T09:40:09.415Z,94676.11
2018-05-04T09:42:35.833Z,94680.17
2018-05-04T09:45:02.494Z,94678.32
2018-05-04T09:47:28.971Z,94673.77
2018-05-04T09:49:55.596Z,94654.00
2018-05-04T09:52:22.221Z,94663.16
2018-05-04T09:54:48.859Z,94673.00
2018-05-04T09:57:15.767Z,94678.17
2018-05-04T09:59:42.270Z,94654.27
2018-05-04T10:02:08.769Z,94672.11
2018-05-04T10:04:35.742Z,94675.93
2018-05-04T10:07:02.243Z,94680.47
2018-05-04T10:09:28.621Z,94653.98
2018-05-04T10:11:55.207Z,94671.46
2018-05-04T10:14:21.855Z,94663.26
2018-05-04T10:16:48.391Z,94666.03
2018-05-04T10:19:14.925Z,94666.41
2018-05-04T10:21:41.438Z,94676.69
2018-05-04T10:24:07.989Z,94667.45
2018-05-04T10:26:34.705Z,94652.77
2018-05-04T10:29:01.169Z,94665.69
2018-05-04T10:31:27.850Z,94648.35
2018-05-04T10:33:54.439Z,94663.17
2018-05-04T10:36:21.191Z,94654.66
2018-05-04T10:38:47.948Z,94663.23
2018-05-04T10:41:14.439Z,94670.80
2018-05-04T10:43:40.992Z,94658.87
2018-05-04T10:46:07.430Z,94651.31
2018-05-04T10:48:34.169Z,94649.83
2018-05-04T10:51:00.974Z,94652.01
2018-05-04T10:53:28.889Z,94655.22
2018-05-04T10:55:55.725Z,94653.42
2018-05-04T10:58:22.553Z,94658.06
2018-05-04T11:00:49.914Z,94661.11
2018-05-04T11:03:16.656Z,94648.76
2018-05-04T11:05:43.217Z,94658.47
2018-05-04T11:08:09.829Z,94653.90
2018-05-04T11:10:36.553Z,94642.17
2018-05-04T11:13:03.009Z,94630.92
2018-05-04T11:15:29.505Z,94643.21
2018-05-04T11:17:56.293Z,94639.55
2018-05-04T11:20:22.812Z,94635.08
2018-05-04T11:22:49.756Z,94623.67
2018-05-04T11:25:16.463Z,94643.55
2018-05-04T11:27:43.039Z,94628.80
2018-05-04T11:30:09.468Z,94632.67
2018-05-04T11:32:36.002Z,94629.68
2018-05-04T11:35:02.641Z,94632.40
2018-05-04T11:37:29.171Z,94616.38
2018-05-04T11:39:55.630Z,94631.27
2018-05-04T11:42:22.515Z,94613.14
2018-05-04T11:44:49.164Z,94621.20
2018-05-04T11:47:15.777Z,94629.19
2018-05-04T11:49:42.371Z,94624.39
2018-05-04T11:52:09.202Z,94637.09
2018-05-04T11:54:35.832Z,94620.80
2018-05-04T11:57:02.580Z,94633.50
2018-05-04T11:59:29.119Z,94634.32
2018-05-04T12:01:55.753Z,94623.45
2018-05-04T12:04:22.375Z,94629.08
2018-05-04T12:06:48.896Z,94616.69
2018-05-04T12:09:15.638Z,94626.68
2018-05-04T12:11:42.202Z,94617.04
2018-05-04T12:14:08.809Z,94621.16
2018-05-04T12:16:35.393Z,94608.59
2018-05-04T12:19:01.848Z,94621.51
2018-05-04T12:21:28.445Z,94611.05
2018-05-04T12:23:54.951Z,94612.64
2018-05-04T12:26:21.475Z,94613.30
2018-05-04T12:28:48.049Z,94588.30
2018-05-04T12:31:14.682Z,94621.52
2018-05-04T12:33:41.325Z,94617.23
2018-05-04T12:36:07.841Z,94611.58
2018-05-04T12:38:34.509Z,94612.27
2018-05-04T12:41:01.267Z,94621.88
2018-05-04T12:43:27.987Z,94600.86
2018-05-04T12:45:54.511Z,94622.51
2018-05-04T12:48:21.052Z,94620.91
2018-05-04T12:50:47.700Z,94615.11
2018-05-04T12:53:14.430Z,94611.53
2018-05-04T12:55:41.166Z,94618.80
2018-05-04T12:58:07.776Z,94603.53
2018-05-04T13:00:35.472Z,94616.88
2018-05-04T13:03:02.105Z,94617.41
2018-05-04T13:05:29.354Z,94608.64
2018-05-04T13:07:55.991Z,94616.05
2018-05-04T13:10:22.602Z,94606.88
2018-05-04T13:12:49.165Z,94611.53
2018-05-04T13:15:15.602Z,94613.63
2018-05-04T13:17:42.085Z,94599.16
2018-05-04T13:20:08.636Z,94622.17
2018-05-04T13:22:35.397Z,94604.93
2018-05-04T13:25:01.985Z,94617.09
2018-05-04T13:27:28.682Z,94619.10
2018-05-04T13:29:55.731Z,94626.20
2018-05-04T13:32:22.369Z,94626.87
2018-05-04T13:34:49.007Z,94624.19
2018-05-04T13:37:15.545Z,94626.38
2018-05-04T13:39:42.067Z,94633.66
2018-05-04T13:42:08.609Z,94629.20
2018-05-04T13:44:35.246Z,94606.17
2018-05-04T13:47:01.608Z,94641.25
2018-05-04T13:49:28.174Z,94623.34
2018-05-04T13:51:54.604Z,94636.42
2018-05-04T13:54:21.009Z,94642.13
2018-05-04T13:56:48.357Z,94634.06
2018-05-04T13:59:14.692Z,94638.89
2018-05-04T14:01:41.080Z,94649.75
2018-05-04T14:04:07.424Z,94639.23
2018-05-04T14:06:33.894Z,94623.03
2018-05-04T14:09:00.215Z,94645.13
2018-05-04T14:11:26.553Z,94652.31
2018-05-04T14:13:52.921Z,94649.48
2018-05-04T14:16:19.308Z,94652.53
2018-05-04T14:18:45.739Z,94645.52
2018-05-04T14:21:12.076Z,94658.53
2018-05-04T14:23:38.476Z,94676.91
2018-05-04T14:26:04.887Z,94658.16
2018-05-04T14:28:31.353Z,94682.21
2018-05-04T14:30:57.707Z,94676.98
2018-05-04T14:33:24.162Z,94681.80
2018-05-04T14:35:50.528Z,94694.09
2018-05-04T14:38:16.896Z,94699.45
2018-05-04T14:40:43.289Z,94696.17
2018-05-04T14:43:09.686Z,94697.90
2018-05-04T14:45:36.030Z,94696.33
2018-05-04T14:48:02.374Z,94712.53
2018-05-04T14:50:28.765Z,94710.48
2018-05-04T14:52:55.090Z,94712.84
2018-05-04T14:55:21.436Z,94710.14
2018-05-04T14:57:47.806Z,94720.03
2018-05-04T15:00:14.128Z,94714.61
2018-05-04T15:02:40.480Z,94709.27
2018-05-04T15:05:06.826Z,94718.45
2018-05-04T15:07:33.192Z,94727.16
2018-05-04T15:09:59.592Z,94721.02
2018-05-04T15:12:25.920Z,94710.91
2018-05-04T15:14:52.315Z,94710.09
2018-05-04T15:17:18.753Z,94701.64
2018-05-04T15:19:45.193Z,94693.03
2018-05-04T15:22:11.565Z,94685.05
2018-05-04T15:24:38.058Z,94694.49
2018-05-04T15:27:04.597Z,94684.06
2018-05-04T15:29:30.935Z,94693.44
2018-05-04T15:31:57.274Z,94689.69
2018-05-04T15:34:23.618Z,94687.47
2018-05-04T15:36:49.940Z,94686.71
2018-05-04T15:39:16.303Z,94695.63
2018-05-04T15:41:42.652Z,94687.80
2018-05-04T15:44:08.998Z,94677.05
2018-05-04T15:46:35.325Z,94679.52
2018-05-04T15:49:01.646Z,94690.59
2018-05-04T15:51:27.984Z,94687.48
2018-05-04T15:53:54.297Z,94684.42
2018-05-04T15:56:20.684Z,94698.16
2018-05-04T15:58:47.028Z,94686.38
2018-05-04T16:01:13.426Z,94689.73
2018-05-04T16:03:39.752Z,94687.34
2018-05-04T16:06:06.145Z,94672.52
2018-05-04T16:08:32.437Z,94665.02
2018-05-04T16:10:58.751Z,94679.33
2018-05-04T16:13:25.068Z,94672.66
2018-05-04T16:15:51.390Z,94664.22
2018-05-04T16:18:17.755Z,94654.45
2018-05-04T16:20:44.078Z,94653.84
2018-05-04T16:23:10.433Z,94649.07
2018-05-04T16:25:36.752Z,94654.09
2018-05-04T16:28:03.117Z,94678.79
2018-05-04T16:30:29.441Z,94711.55
2018-05-04T16:32:55.796Z,94704.41
2018-05-04T16:35:22.111Z,94710.53
2018-05-04T16:37:48.456Z,94703.70
2018-05-04T16:40:14.859Z,94683.66
2018-05-04T16:42:41.187Z,94682.48
2018-05-04T16:45:07.504Z,94684.34
2018-05-04T16:47:33.826Z,94691.66
2018-05-04T16:50:00.169Z,94703.42
2018-05-04T16:52:26.480Z,94701.72
2018-05-04T16:54:52.807Z,94707.49
2018-05-04T16:57:19.196Z,94692.22
2018-05-04T16:59:45.509Z,94708.46
2018-05-04T17:02:11.867Z,94724.35
2018-05-04T17:04:38.176Z,94740.41
2018-05-04T17:07:04.519Z,94733.93
2018-05-04T17:09:30.833Z,94720.06
2018-05-04T17:11:57.199Z,94713.81
2018-05-04T17:14:23.519Z,94711.03
2018-05-04T17:16:49.837Z,94712.33
2018-05-04T17:19:16.162Z,94730.73
2018-05-04T17:21:42.524Z,94736.36
2018-05-04T17:24:08.848Z,94729.08
2018-05-04T17:26:35.218Z,94721.56
2018-05-04T17:29:01.550Z,94730.91
2018-05-04T17:31:27.863Z,94729.22
2018-05-04T17:33:54.184Z,94732.28
2018-05-04T17:36:20.531Z,94728.82
2018-05-04T17:38:46.940Z,94720.28
2018-05-04T17:41:13.257Z,94732.68
2018-05-04T17:43:39.577Z,94732.97
2018-05-04T17:46:05.949Z,94733.70
2018-05-04T17:48:32.270Z,94724.31
2018-05-04T17:50:58.604Z,94725.73
2018-05-04T17:53:24.930Z,94725.33
2018-05-04T17:55:51.252Z,94733.23
2018-05-04T17:58:17.619Z,94734.50
2018-05-04T18:00:43.952Z,94736.48
2018-05-04T18:03:10.334Z,94736.48
2018-05-04T18:05:36.641Z,94724.99
2018-05-04T18:08:02.977Z,94731.78
2018-05-04T18:10:29.334Z,94724.88
2018-05-04T18:12:55.657Z,94731.68
2018-05-04T18:15:22.043Z,94748.05
2018-05-04T18:17:48.417Z,94743.50
2018-05-04T18:20:14.749Z,94742.80
2018-05-04T18:22:41.105Z,94749.39
2018-05-04T18:25:07.407Z,94749.13
2018-05-04T18:27:33.761Z,94746.20
2018-05-04T18:30:00.097Z,94735.59
2018-05-04T18:32:26.407Z,94752.54
2018-05-04T18:34:52.735Z,94747.70
2018-05-04T18:37:19.119Z,94764.36
2018-05-04T18:39:45.444Z,94763.69
2018-05-04T18:42:11.765Z,94762.88
2018-05-04T18:44:38.081Z,94761.91
2018-05-04T18:47:04.441Z,94763.60
2018-05-04T18:49:30.818Z,94751.70
2018-05-04T18:51:57.143Z,94757.97
2018-05-04T18:54:23.521Z,94757.62
2018-05-04T18:56:49.848Z,94770.80
2018-05-04T18:59:16.176Z,94771.63
2018-05-04T19:01:42.498Z,94775.84
2018-05-04T19:04:08.852Z,94771.56
2018-05-04T19:06:35.214Z,94769.25
2018-05-04T19:09:01.578Z,94775.91
2018-05-04T19:11:27.906Z,94785.50
2018-05-04T19:13:54.262Z,94784.73
2018-05-04T19:16:20.591Z,94785.09
2018-05-04T19:18:46.971Z,94786.53
2018-05-04T19:21:13.345Z,94768.74
2018-05-04T19:23:39.663Z,94793.98
2018-05-04T19:26:06.018Z,94792.03
2018-05-04T19:28:32.331Z,94788.83
2018-05-04T19:30:58.706Z,94789.86
2018-05-04T19:33:25.020Z,94801.33
2018-05-04T19:35:51.333Z,94796.58
2018-05-04T19:38:17.693Z,94779.33
2018-05-04T19:40:44.004Z,94787.13
2018-05-04T19:43:10.364Z,94791.00
2018-05-04T19:45:36.700Z,94788.89
2018-05-04T19:48:03.062Z,94792.09
2018-05-04T19:50:29.425Z,94796.45
2018-05-04T19:52:55.788Z,94784.81
2018-05-04T19:55:22.108Z,94787.53
2018-05-04T19:57:48.481Z,94789.45
2018-05-04T20:00:14.800Z,94787.59
2018-05-04T20:02:41.159Z,94788.09
2018-05-04T20:05:07.473Z,94784.62
2018-05-04T20:07:33.799Z,94783.81
2018-05-04T20:10:00.157Z,94783.58
2018-05-04T20:12:26.480Z,94775.28
2018-05-04T20:14:52.832Z,94793.59
2018-05-04T20:17:19.193Z,94782.20
2018-05-04T20:19:45.540Z,94783.84
2018-05-04T20:22:11.893Z,94788.75
2018-05-04T20:24:38.246Z,94782.38
2018-05-04T20:27:04.612Z,94778.22
2018-05-04T20:29:30.944Z,94783.03
2018-05-04T20:31:57.304Z,94771.91
2018-05-04T20:34:23.631Z,94780.80
2018-05-04T20:36:50.000Z,94781.33
2018-05-04T20:39:16.332Z,94777.16
2018-05-04T20:41:42.687Z,94774.28
2018-05-04T20:44:09.123Z,94776.45
2018-05-04T20:46:35.389Z,94769.62
2018-05-04T20:49:01.722Z,94760.25
2018-05-04T20:51:28.124Z,94775.62
2018-05-04T20:53:54.441Z,94777.33
2018-05-04T20:56:20.773Z,94768.11
2018-05-04T20:58:47.137Z,94772.39
2018-05-04T21:01:13.501Z,94776.33
2018-05-04T21:03:39.804Z,94767.36
2018-05-04T21:06:06.180Z,94783.64
2018-05-04T21:08:32.496Z,94780.06
2018-05-04T21:10:58.827Z,94783.23
2018-05-04T21:13:25.179Z,94783.30
2018-05-04T21:15:51.531Z,94789.28
2018-05-04T21:18:17.848Z,94782.33
2018-05-04T21:20:44.207Z,94786.91
2018-05-04T21:23:10.535Z,94784.36
2018-05-04T21:25:36.921Z,94782.40
2018-05-04T21:28:03.252Z,94784.42
2018-05-04T21:30:29.613Z,94785.22
2018-05-04T21:32:55.994Z,94791.91
2018-05-04T21:35:22.334Z,94782.90
2018-05-04T21:37:48.652Z,94786.56
2018-05-04T21:40:14.990Z,94795.59
2018-05-04T21:42:41.344Z,94796.69
2018-05-04T21:45:07.703Z,94799.52
2018-05-04T21:47:34.080Z,94796.63
2018-05-04T21:50:00.424Z,94805.42
2018-05-04T21:52:26.792Z,94800.61
2018-05-04T21:54:53.168Z,94803.30
2018-05-04T21:57:19.476Z,94802.84
2018-05-04T21:59:45.812Z,94810.31
2018-05-04T22:02:12.205Z,94811.05
2018-05-04T22:04:38.531Z,94807.38
2018-05-04T22:07:04.904Z,94793.77
2018-05-04T22:09:31.275Z,94803.36
2018-05-04T22:11:57.628Z,94804.77
2018-05-04T22:14:23.950Z,94800.25
2018-05-04T22:16:50.380Z,94798.95
2018-05-04T22:19:16.732Z,94802.47
2018-05-04T22:21:43.090Z,94803.77
2018-05-04T22:24:09.457Z,94797.58
2018-05-04T22:26:35.861Z,94786.17
2018-05-04T22:29:02.193Z,94787.72
2018-05-04T22:31:28.513Z,94788.89
2018-05-04T22:33:54.828Z,94801.80
2018-05-04T22:36:21.148Z,94796.63
2018-05-04T22:38:47.560Z,94798.71
2018-05-04T22:41:13.879Z,94795.30
2018-05-04T22:43:40.236Z,94798.39
2018-05-04T22:46:06.585Z,94796.08
2018-05-04T22:48:32.953Z,94797.42
2018-05-04T22:50:59.336Z,94801.75
2018-05-04T22:53:25.706Z,94795.92
2018-05-04T22:55:52.059Z,94797.27
2018-05-04T22:58:18.387Z,94804.80
2018-05-04T23:00:44.753Z,94804.48
2018-05-04T23:03:11.145Z,94796.70
2018-05-04T23:05:37.508Z,94787.87
2018-05-04T23:08:03.872Z,94787.72
2018-05-04T23:10:30.220Z,94795.06
2018-05-04T23:12:56.564Z,94789.02
2018-05-04T23:15:22.912Z,94780.00
2018-05-04T23:17:49.231Z,94779.02
2018-05-04T23:20:15.579Z,94790.25
2018-05-04T23:22:41.924Z,94785.41
2018-05-04T23:25:08.227Z,94785.30
2018-05-04T23:27:34.627Z,94787.31
2018-05-04T23:30:00.951Z,94786.55
2018-05-04T23:32:27.273Z,94781.80
2018-05-04T23:34:53.628Z,94783.41
2018-05-04T23:37:20.003Z,94788.66
2018-05-04T23:39:46.344Z,94780.31
2018-05-04T23:42:12.693Z,94791.61
2018-05-04T23:44:39.009Z,94785.16
2018-05-04T23:47:05.377Z,94782.43
2018-05-04T23:49:31.735Z,94789.48
2018-05-04T23:51:58.064Z,94787.47
2018-05-04T23:54:24.423Z,94788.92
2018-05-04T23:56:50.738Z,94782.63
2018-05-04T23:59:17.062Z,94776.86
